Honest Sky — 3FAA5 — position and weather

sailwx.info

Track history (hours):
 
Tides and Currents Weather Stations Pressure Air Temp Water Temp Dewpoint Dewpoint Depression Visibility Wind Speed Wind Dir Waves Ship Positions

Honest Sky

Last reported at 2018-Jun-22 08:57 UTC. Time now 2018-Jun-22 09:15 UTC.
Position S 32°53' E 151°46'.

Length 235 m; draft 12.9 m.

Type: Cargo ship. MMSI: 354436000.

Date/timePositionNaut miles runAvg speedWind from/ knotsBaromVisibWave heightAir tempDewpointWater temp
2018-Jun-22 08:57S 32°53' E 151°46'0 0.0
2018-Jun-22 08:18S 32°53' E 151°46'0 0.0
2018-Jun-21 22:00S 32°53' E 151°46'0 0.0
2018-Jun-21 21:15S 32°53' E 151°46'0 0.0
2018-Jun-21 21:00S 32°53' E 151°46'0 0.0
2018-Jun-21 20:12S 32°53' E 151°46'0 0.1
2018-Jun-21 19:51S 32°53' E 151°46'0 0.1
2018-Jun-21 19:30S 32°53' E 151°46'0 0.1
2018-Jun-21 18:39S 32°53' E 151°46'0 0.3
2018-Jun-21 18:30S 32°53' E 151°46'0 0.0
2018-Jun-21 17:57S 32°53' E 151°46'0 0.1
2018-Jun-21 17:24S 32°53' E 151°46'0 0.1
2018-Jun-21 16:45S 32°53' E 151°46'0 0.2
2018-Jun-21 16:30S 32°53' E 151°46'0 0.1
2018-Jun-21 15:54S 32°53' E 151°46'0 0.1
2018-Jun-21 15:30S 32°53' E 151°46'0 0.0
2018-Jun-21 14:54S 32°53' E 151°46'0 0.1
2018-Jun-21 14:30S 32°53' E 151°46'0 0.0
2018-Jun-21 14:00S 32°53' E 151°46'0 0.0
2018-Jun-21 13:27S 32°53' E 151°46'0 0.1
2018-Jun-21 12:57S 32°53' E 151°46'0 0.0
2018-Jun-21 12:30S 32°53' E 151°46'0 0.1
2018-Jun-21 11:57S 32°53' E 151°46'0 0.1
2018-Jun-21 11:21S 32°53' E 151°46'0 0.1
2018-Jun-21 10:51S 32°53' E 151°46'0 0.1
2018-Jun-21 10:27S 32°53' E 151°46'0 0.0
2018-Jun-21 09:59S 32°53' E 151°46'1 2.7
2018-Jun-21 09:30S 32°55' E 151°46'3 6.5
2018-Jun-21 09:00S 32°55' E 151°50'4 7.9
2018-Jun-21 08:30S 32°59' E 151°53'3 5.7
2018-Jun-21 08:00S 33°01' E 151°53'5 9.3
2018-Jun-21 07:30S 33°06' E 151°53'5 9.1
2018-Jun-21 06:57S 33°11' E 151°54'4 8.8
2018-Jun-21 06:28S 33°15' E 151°55'11 1.7
2018-Jun-20 23:57S 33°23' E 152°04'510.7
2018-Jun-20 23:30S 33°18' E 152°05'5 9.8
2018-Jun-20 23:00S 33°13' E 152°05'5 9.9
2018-Jun-20 22:31S 33°09' E 152°02'1 1.4
2018-Jun-20 22:00S 33°09' E 152°02'1 1.2
2018-Jun-20 20:51S 33°10' E 152°02'1 1.4
2018-Jun-20 20:18S 33°11' E 152°02'1 1.2
2018-Jun-20 19:51S 33°12' E 152°02'1 1.1
2018-Jun-20 19:24S 33°12' E 152°02'0 1.0
2018-Jun-20 18:57S 33°13' E 152°02'1 1.0
2018-Jun-20 18:21S 33°13' E 152°02'1 1.2
2018-Jun-20 17:51S 33°14' E 152°02'1 1.3
2018-Jun-20 17:21S 33°15' E 152°02'7 0.4
2018-Jun-19 21:57S 33°22' E 152°02'3 5.8
2018-Jun-19 21:30S 33°19' E 152°01'8 1.0
2018-Jun-19 14:02S 33°21' E 151°52'2 6.3
2018-Jun-19 13:40S 33°19' E 151°53'1 6.0
2018-Jun-19 13:28S 33°18' E 151°54'3 5.8
2018-Jun-19 13:00S 33°16' E 151°55'3 6.2
2018-Jun-19 12:30S 33°13' E 151°57'3 6.4
2018-Jun-19 12:00S 33°10' E 151°58'3 5.3
2018-Jun-19 11:30S 33°07' E 151°60'3 5.0
2018-Jun-19 11:00S 33°05' E 151°60'2 3.5
2018-Jun-19 10:29S 33°03' E 151°60'1 2.7
2018-Jun-19 09:59S 33°04' E 151°59'1 2.7
2018-Jun-19 09:30S 33°06' E 151°59'1 2.6
2018-Jun-19 09:00S 33°07' E 151°59'1 2.6
2018-Jun-19 08:30S 33°08' E 151°58'2 3.8
2018-Jun-19 08:00S 33°09' E 151°57'3 6.1
2018-Jun-19 07:30S 33°09' E 151°53'1 2.8
2018-Jun-19 07:00S 33°10' E 151°54'2 1.5
2018-Jun-19 05:42S 33°12' E 151°54'1 5.2
2018-Jun-19 05:30S 33°11' E 151°55'3 5.8
2018-Jun-19 05:00S 33°09' E 151°57'3 6.2
2018-Jun-19 04:30S 33°06' E 151°59'3 6.4
2018-Jun-19 04:00S 33°03' E 151°60'4 8.8
2018-Jun-19 03:30S 33°06' E 151°56'611.5
2018-Jun-19 03:00S 33°11' E 151°52'6 1.7
2018-Jun-18 23:28S 33°17' E 151°52'3 5.5
2018-Jun-18 22:59S 33°14' E 151°53'3 5.3
2018-Jun-18 22:27S 33°12' E 151°54'2 4.8
2018-Jun-18 22:00S 33°10' E 151°55'1 2.9
2018-Jun-18 21:30S 33°11' E 151°55'7 4.0
2018-Jun-18 19:47S 33°18' E 151°57'4 3.3
2018-Jun-18 18:43S 33°15' E 151°60'1 4.1
2018-Jun-18 18:30S 33°14' E 151°60'2 3.8
2018-Jun-18 18:00S 33°12' E 152°00'2 4.1
2018-Jun-18 17:30S 33°10' E 152°00'1 2.4
2018-Jun-18 17:00S 33°11' E 152°01'6 2.7
2018-Jun-18 14:51S 33°17' E 152°01'1 2.7
2018-Jun-18 14:30S 33°16' E 152°01'1 2.6
2018-Jun-18 13:59S 33°14' E 152°01'1 2.2
2018-Jun-18 13:29S 33°13' E 152°01'1 2.3
2018-Jun-18 13:00S 33°12' E 152°00'1 1.8
2018-Jun-18 12:30S 33°12' E 151°59'1 1.3
2018-Jun-18 12:00S 33°11' E 151°59'1 2.7
2018-Jun-18 11:30S 33°10' E 151°59'1 2.0
2018-Jun-18 11:00S 33°09' E 151°59'1 2.8
2018-Jun-18 10:30S 33°09' E 151°57'1 2.4
2018-Jun-18 10:00S 33°08' E 151°57'1 1.7
2018-Jun-18 09:30S 33°07' E 151°58'5 9.1
2018-Jun-18 08:59S 33°12' E 151°55'5 1.7
2018-Jun-18 06:02S 33°16' E 151°53'0 4.3
2018-Jun-18 06:00S 33°16' E 151°53'1 2.8
2018-Jun-18 05:29S 33°15' E 151°53'1 1.3
2018-Jun-18 04:58S 33°14' E 151°54'1 2.9
2018-Jun-18 04:30S 33°14' E 151°55'2 3.5
2018-Jun-18 03:59S 33°14' E 151°57'2 3.3
2018-Jun-18 03:30S 33°13' E 151°59'3 6.3
2018-Jun-18 03:00S 33°13' E 152°03'3 3.7
2018-Jun-18 02:19S 33°12' E 152°06'2 3.9
2018-Jun-18 01:43S 33°13' E 152°09'1 3.6
2018-Jun-18 01:30S 33°13' E 152°09'8 6.8
2018-Jun-18 00:22S 33°14' E 152°19'3 7.2
2018-Jun-17 23:57S 33°15' E 152°22'16 1.1
2018-Jun-17 08:43S 33°15' E 152°03'1 2.2
2018-Jun-17 08:19S 33°14' E 152°02'1 2.3
2018-Jun-17 07:49S 33°14' E 152°01'1 2.4
2018-Jun-17 07:28S 33°13' E 151°60'1 2.5
2018-Jun-17 06:55S 33°12' E 151°59'1 2.3
2018-Jun-17 06:28S 33°11' E 151°58'2 3.7
2018-Jun-17 06:00S 33°10' E 151°57'510.3
2018-Jun-17 05:30S 33°05' E 151°58'510.3
2018-Jun-17 05:00S 32°60' E 151°58'4 8.5
2018-Jun-17 04:30S 32°56' E 152°01'510.2
2018-Jun-17 04:00S 32°54' E 152°07'510.5
2018-Jun-17 03:30S 32°52' E 152°12'510.3
2018-Jun-17 03:00S 32°49' E 152°18'510.2
2018-Jun-17 02:30S 32°46' E 152°22'510.3
2018-Jun-17 02:00S 32°43' E 152°27'510.8
2018-Jun-17 01:30S 32°40' E 152°33'510.8
2018-Jun-17 01:00S 32°37' E 152°38'610.2
2018-Jun-17 00:27S 32°33' E 152°43'  
Track history (hours):
 
Tides and Currents Weather Stations Pressure Air Temp Water Temp Dewpoint Dewpoint Depression Visibility Wind Speed Wind Dir Waves Ship Positions

Honest Sky

Last reported at 2018-Jun-22 08:57 UTC. Time now 2018-Jun-22 09:15 UTC.
Position S 32°53' E 151°46'.

Length 235 m; draft 12.9 m.

Type: Cargo ship. MMSI: 354436000.

Date/timePositionNaut miles runAvg speedWind from/ knotsBaromVisibWave heightAir tempDewpointWater temp
2018-Jun-22 08:57S 32°53' E 151°46'0 0.0
2018-Jun-22 08:18S 32°53' E 151°46'0 0.0
2018-Jun-21 22:00S 32°53' E 151°46'0 0.0
2018-Jun-21 21:15S 32°53' E 151°46'0 0.0
2018-Jun-21 21:00S 32°53' E 151°46'0 0.0
2018-Jun-21 20:12S 32°53' E 151°46'0 0.1
2018-Jun-21 19:51S 32°53' E 151°46'0 0.1
2018-Jun-21 19:30S 32°53' E 151°46'0 0.1
2018-Jun-21 18:39S 32°53' E 151°46'0 0.3
2018-Jun-21 18:30S 32°53' E 151°46'0 0.0
2018-Jun-21 17:57S 32°53' E 151°46'0 0.1
2018-Jun-21 17:24S 32°53' E 151°46'0 0.1
2018-Jun-21 16:45S 32°53' E 151°46'0 0.2
2018-Jun-21 16:30S 32°53' E 151°46'0 0.1
2018-Jun-21 15:54S 32°53' E 151°46'0 0.1
2018-Jun-21 15:30S 32°53' E 151°46'0 0.0
2018-Jun-21 14:54S 32°53' E 151°46'0 0.1
2018-Jun-21 14:30S 32°53' E 151°46'0 0.0
2018-Jun-21 14:00S 32°53' E 151°46'0 0.0
2018-Jun-21 13:27S 32°53' E 151°46'0 0.1
2018-Jun-21 12:57S 32°53' E 151°46'0 0.0
2018-Jun-21 12:30S 32°53' E 151°46'0 0.1
2018-Jun-21 11:57S 32°53' E 151°46'0 0.1
2018-Jun-21 11:21S 32°53' E 151°46'0 0.1
2018-Jun-21 10:51S 32°53' E 151°46'0 0.1
2018-Jun-21 10:27S 32°53' E 151°46'0 0.0
2018-Jun-21 09:59S 32°53' E 151°46'1 2.7
2018-Jun-21 09:30S 32°55' E 151°46'3 6.5
2018-Jun-21 09:00S 32°55' E 151°50'4 7.9
2018-Jun-21 08:30S 32°59' E 151°53'3 5.7
2018-Jun-21 08:00S 33°01' E 151°53'5 9.3
2018-Jun-21 07:30S 33°06' E 151°53'5 9.1
2018-Jun-21 06:57S 33°11' E 151°54'4 8.8
2018-Jun-21 06:28S 33°15' E 151°55'11 1.7
2018-Jun-20 23:57S 33°23' E 152°04'510.7
2018-Jun-20 23:30S 33°18' E 152°05'5 9.8
2018-Jun-20 23:00S 33°13' E 152°05'5 9.9
2018-Jun-20 22:31S 33°09' E 152°02'1 1.4
2018-Jun-20 22:00S 33°09' E 152°02'1 1.2
2018-Jun-20 20:51S 33°10' E 152°02'1 1.4
2018-Jun-20 20:18S 33°11' E 152°02'1 1.2
2018-Jun-20 19:51S 33°12' E 152°02'1 1.1
2018-Jun-20 19:24S 33°12' E 152°02'0 1.0
2018-Jun-20 18:57S 33°13' E 152°02'1 1.0
2018-Jun-20 18:21S 33°13' E 152°02'1 1.2
2018-Jun-20 17:51S 33°14' E 152°02'1 1.3
2018-Jun-20 17:21S 33°15' E 152°02'7 0.4
2018-Jun-19 21:57S 33°22' E 152°02'3 5.8
2018-Jun-19 21:30S 33°19' E 152°01'8 1.0
2018-Jun-19 14:02S 33°21' E 151°52'2 6.3
2018-Jun-19 13:40S 33°19' E 151°53'1 6.0
2018-Jun-19 13:28S 33°18' E 151°54'3 5.8
2018-Jun-19 13:00S 33°16' E 151°55'3 6.2
2018-Jun-19 12:30S 33°13' E 151°57'3 6.4
2018-Jun-19 12:00S 33°10' E 151°58'3 5.3
2018-Jun-19 11:30S 33°07' E 151°60'3 5.0
2018-Jun-19 11:00S 33°05' E 151°60'2 3.5
2018-Jun-19 10:29S 33°03' E 151°60'1 2.7
2018-Jun-19 09:59S 33°04' E 151°59'1 2.7
2018-Jun-19 09:30S 33°06' E 151°59'1 2.6
2018-Jun-19 09:00S 33°07' E 151°59'1 2.6
2018-Jun-19 08:30S 33°08' E 151°58'2 3.8
2018-Jun-19 08:00S 33°09' E 151°57'3 6.1
2018-Jun-19 07:30S 33°09' E 151°53'1 2.8
2018-Jun-19 07:00S 33°10' E 151°54'2 1.5
2018-Jun-19 05:42S 33°12' E 151°54'1 5.2
2018-Jun-19 05:30S 33°11' E 151°55'3 5.8
2018-Jun-19 05:00S 33°09' E 151°57'3 6.2
2018-Jun-19 04:30S 33°06' E 151°59'3 6.4
2018-Jun-19 04:00S 33°03' E 151°60'4 8.8
2018-Jun-19 03:30S 33°06' E 151°56'611.5
2018-Jun-19 03:00S 33°11' E 151°52'6 1.7
2018-Jun-18 23:28S 33°17' E 151°52'3 5.5
2018-Jun-18 22:59S 33°14' E 151°53'3 5.3
2018-Jun-18 22:27S 33°12' E 151°54'2 4.8
2018-Jun-18 22:00S 33°10' E 151°55'1 2.9
2018-Jun-18 21:30S 33°11' E 151°55'7 4.0
2018-Jun-18 19:47S 33°18' E 151°57'4 3.3
2018-Jun-18 18:43S 33°15' E 151°60'1 4.1
2018-Jun-18 18:30S 33°14' E 151°60'2 3.8
2018-Jun-18 18:00S 33°12' E 152°00'2 4.1
2018-Jun-18 17:30S 33°10' E 152°00'1 2.4
2018-Jun-18 17:00S 33°11' E 152°01'6 2.7
2018-Jun-18 14:51S 33°17' E 152°01'1 2.7
2018-Jun-18 14:30S 33°16' E 152°01'1 2.6
2018-Jun-18 13:59S 33°14' E 152°01'1 2.2
2018-Jun-18 13:29S 33°13' E 152°01'1 2.3
2018-Jun-18 13:00S 33°12' E 152°00'1 1.8
2018-Jun-18 12:30S 33°12' E 151°59'1 1.3
2018-Jun-18 12:00S 33°11' E 151°59'1 2.7
2018-Jun-18 11:30S 33°10' E 151°59'1 2.0
2018-Jun-18 11:00S 33°09' E 151°59'1 2.8
2018-Jun-18 10:30S 33°09' E 151°57'1 2.4
2018-Jun-18 10:00S 33°08' E 151°57'1 1.7
2018-Jun-18 09:30S 33°07' E 151°58'5 9.1
2018-Jun-18 08:59S 33°12' E 151°55'5 1.7
2018-Jun-18 06:02S 33°16' E 151°53'0 4.3
2018-Jun-18 06:00S 33°16' E 151°53'1 2.8
2018-Jun-18 05:29S 33°15' E 151°53'1 1.3
2018-Jun-18 04:58S 33°14' E 151°54'1 2.9
2018-Jun-18 04:30S 33°14' E 151°55'2 3.5
2018-Jun-18 03:59S 33°14' E 151°57'2 3.3
2018-Jun-18 03:30S 33°13' E 151°59'3 6.3
2018-Jun-18 03:00S 33°13' E 152°03'3 3.7
2018-Jun-18 02:19S 33°12' E 152°06'2 3.9
2018-Jun-18 01:43S 33°13' E 152°09'1 3.6
2018-Jun-18 01:30S 33°13' E 152°09'8 6.8
2018-Jun-18 00:22S 33°14' E 152°19'3 7.2
2018-Jun-17 23:57S 33°15' E 152°22'16 1.1
2018-Jun-17 08:43S 33°15' E 152°03'1 2.2
2018-Jun-17 08:19S 33°14' E 152°02'1 2.3
2018-Jun-17 07:49S 33°14' E 152°01'1 2.4
2018-Jun-17 07:28S 33°13' E 151°60'1 2.5
2018-Jun-17 06:55S 33°12' E 151°59'1 2.3
2018-Jun-17 06:28S 33°11' E 151°58'2 3.7
2018-Jun-17 06:00S 33°10' E 151°57'510.3
2018-Jun-17 05:30S 33°05' E 151°58'510.3
2018-Jun-17 05:00S 32°60' E 151°58'4 8.5
2018-Jun-17 04:30S 32°56' E 152°01'510.2
2018-Jun-17 04:00S 32°54' E 152°07'510.5
2018-Jun-17 03:30S 32°52' E 152°12'510.3
2018-Jun-17 03:00S 32°49' E 152°18'510.2
2018-Jun-17 02:30S 32°46' E 152°22'510.3
2018-Jun-17 02:00S 32°43' E 152°27'510.8
2018-Jun-17 01:30S 32°40' E 152°33'510.8
2018-Jun-17 01:00S 32°37' E 152°38'610.2
2018-Jun-17 00:27S 32°33' E 152°43'  

Dump ship's entire track history